sensor_id;sensor_type;location;lat;lon;timestamp;P1;durP1;ratioP1;P2;durP2;ratioP2
71558;SDS011;59382;43.852;25.952;2022-12-24T00:00:19;29.23;;;16.02;;
71558;SDS011;59382;43.852;25.952;2022-12-24T00:02:45;25.88;;;14.25;;
71558;SDS011;59382;43.852;25.952;2022-12-24T00:05:10;27.77;;;15.35;;
71558;SDS011;59382;43.852;25.952;2022-12-24T00:07:39;27.00;;;15.48;;
71558;SDS011;59382;43.852;25.952;2022-12-24T00:10:05;29.65;;;16.40;;
71558;SDS011;59382;43.852;25.952;2022-12-24T00:12:32;30.52;;;15.85;;
71558;SDS011;59382;43.852;25.952;2022-12-24T00:14:58;31.52;;;15.27;;
71558;SDS011;59382;43.852;25.952;2022-12-24T00:17:23;31.88;;;16.65;;
71558;SDS011;59382;43.852;25.952;2022-12-24T00:19:49;31.88;;;16.92;;
71558;SDS011;59382;43.852;25.952;2022-12-24T00:22:14;30.15;;;16.38;;
71558;SDS011;59382;43.852;25.952;2022-12-24T00:24:40;36.83;;;17.58;;
71558;SDS011;59382;43.852;25.952;2022-12-24T00:27:08;30.77;;;16.23;;
71558;SDS011;59382;43.852;25.952;2022-12-24T00:29:34;29.45;;;15.68;;
71558;SDS011;59382;43.852;25.952;2022-12-24T00:31:59;29.75;;;15.77;;
71558;SDS011;59382;43.852;25.952;2022-12-24T00:34:25;28.65;;;15.38;;
71558;SDS011;59382;43.852;25.952;2022-12-24T00:36:51;29.95;;;15.60;;
71558;SDS011;59382;43.852;25.952;2022-12-24T00:39:17;34.78;;;15.80;;
71558;SDS011;59382;43.852;25.952;2022-12-24T00:41:43;29.95;;;15.55;;
71558;SDS011;59382;43.852;25.952;2022-12-24T00:44:08;31.58;;;15.40;;
71558;SDS011;59382;43.852;25.952;2022-12-24T00:46:35;33.30;;;14.50;;
71558;SDS011;59382;43.852;25.952;2022-12-24T00:49:03;27.08;;;13.90;;
71558;SDS011;59382;43.852;25.952;2022-12-24T00:51:29;29.17;;;15.73;;
71558;SDS011;59382;43.852;25.952;2022-12-24T00:53:55;32.80;;;16.98;;
71558;SDS011;59382;43.852;25.952;2022-12-24T00:56:21;29.60;;;15.23;;
71558;SDS011;59382;43.852;25.952;2022-12-24T00:58:49;29.48;;;16.33;;
71558;SDS011;59382;43.852;25.952;2022-12-24T01:01:15;28.08;;;15.60;;
71558;SDS011;59382;43.852;25.952;2022-12-24T01:03:41;30.17;;;17.02;;
71558;SDS011;59382;43.852;25.952;2022-12-24T01:06:18;34.78;;;16.27;;
71558;SDS011;59382;43.852;25.952;2022-12-24T01:08:51;31.90;;;16.48;;
71558;SDS011;59382;43.852;25.952;2022-12-24T01:11:25;27.77;;;15.75;;
71558;SDS011;59382;43.852;25.952;2022-12-24T01:13:54;26.80;;;15.30;;
71558;SDS011;59382;43.852;25.952;2022-12-24T01:16:20;30.70;;;15.43;;
71558;SDS011;59382;43.852;25.952;2022-12-24T01:18:45;25.88;;;14.38;;
71558;SDS011;59382;43.852;25.952;2022-12-24T01:21:13;30.50;;;15.48;;
71558;SDS011;59382;43.852;25.952;2022-12-24T01:23:42;33.97;;;14.85;;
71558;SDS011;59382;43.852;25.952;2022-12-24T01:26:08;32.15;;;15.60;;
71558;SDS011;59382;43.852;25.952;2022-12-24T01:28:36;30.67;;;15.55;;
71558;SDS011;59382;43.852;25.952;2022-12-24T01:31:02;31.23;;;14.88;;
71558;SDS011;59382;43.852;25.952;2022-12-24T01:33:33;35.17;;;15.98;;
71558;SDS011;59382;43.852;25.952;2022-12-24T01:36:01;30.95;;;16.35;;
71558;SDS011;59382;43.852;25.952;2022-12-24T01:38:27;31.23;;;15.68;;
71558;SDS011;59382;43.852;25.952;2022-12-24T01:40:55;29.58;;;15.30;;
71558;SDS011;59382;43.852;25.952;2022-12-24T01:43:39;30.65;;;14.75;;
71558;SDS011;59382;43.852;25.952;2022-12-24T01:46:06;27.42;;;15.80;;
71558;SDS011;59382;43.852;25.952;2022-12-24T01:48:48;29.88;;;14.85;;
71558;SDS011;59382;43.852;25.952;2022-12-24T01:53:54;28.83;;;14.55;;
71558;SDS011;59382;43.852;25.952;2022-12-24T01:56:27;27.73;;;13.93;;
71558;SDS011;59382;43.852;25.952;2022-12-24T01:58:57;29.38;;;14.15;;
71558;SDS011;59382;43.852;25.952;2022-12-24T02:01:26;22.77;;;13.18;;
71558;SDS011;59382;43.852;25.952;2022-12-24T02:03:52;29.77;;;13.50;;
71558;SDS011;59382;43.852;25.952;2022-12-24T02:06:20;22.83;;;11.90;;
71558;SDS011;59382;43.852;25.952;2022-12-24T02:08:47;21.58;;;12.55;;
71558;SDS011;59382;43.852;25.952;2022-12-24T02:11:21;23.20;;;13.30;;
71558;SDS011;59382;43.852;25.952;2022-12-24T02:13:52;26.38;;;12.73;;
71558;SDS011;59382;43.852;25.952;2022-12-24T02:21:49;18.95;;;10.93;;
71558;SDS011;59382;43.852;25.952;2022-12-24T02:24:32;26.55;;;12.55;;
71558;SDS011;59382;43.852;25.952;2022-12-24T02:27:10;26.17;;;13.00;;
71558;SDS011;59382;43.852;25.952;2022-12-24T02:32:11;21.15;;;12.02;;
71558;SDS011;59382;43.852;25.952;2022-12-24T02:34:54;22.02;;;11.50;;
71558;SDS011;59382;43.852;25.952;2022-12-24T02:38:07;19.23;;;11.05;;
71558;SDS011;59382;43.852;25.952;2022-12-24T02:40:28;18.73;;;10.27;;
71558;SDS011;59382;43.852;25.952;2022-12-24T02:43:17;26.00;;;12.55;;
71558;SDS011;59382;43.852;25.952;2022-12-24T02:45:48;18.48;;;12.05;;
71558;SDS011;59382;43.852;25.952;2022-12-24T02:48:18;19.95;;;11.65;;
71558;SDS011;59382;43.852;25.952;2022-12-24T02:51:01;25.05;;;13.23;;
71558;SDS011;59382;43.852;25.952;2022-12-24T02:53:32;18.20;;;11.20;;
71558;SDS011;59382;43.852;25.952;2022-12-24T02:56:03;20.65;;;11.48;;
71558;SDS011;59382;43.852;25.952;2022-12-24T03:12:48;22.08;;;12.60;;
71558;SDS011;59382;43.852;25.952;2022-12-24T03:15:28;19.55;;;12.00;;
71558;SDS011;59382;43.852;25.952;2022-12-24T03:17:56;18.75;;;11.88;;
71558;SDS011;59382;43.852;25.952;2022-12-24T03:20:31;17.10;;;11.73;;
71558;SDS011;59382;43.852;25.952;2022-12-24T03:23:00;18.38;;;12.65;;
71558;SDS011;59382;43.852;25.952;2022-12-24T03:25:29;19.60;;;12.07;;
71558;SDS011;59382;43.852;25.952;2022-12-24T03:27:57;18.38;;;12.40;;
71558;SDS011;59382;43.852;25.952;2022-12-24T03:30:28;19.42;;;10.70;;
71558;SDS011;59382;43.852;25.952;2022-12-24T03:32:56;18.83;;;11.50;;
71558;SDS011;59382;43.852;25.952;2022-12-24T03:35:22;21.92;;;13.38;;
71558;SDS011;59382;43.852;25.952;2022-12-24T03:37:47;19.52;;;12.32;;
71558;SDS011;59382;43.852;25.952;2022-12-24T03:40:13;21.02;;;12.80;;
71558;SDS011;59382;43.852;25.952;2022-12-24T03:42:38;20.13;;;11.52;;
71558;SDS011;59382;43.852;25.952;2022-12-24T03:45:07;17.27;;;11.07;;
71558;SDS011;59382;43.852;25.952;2022-12-24T03:47:33;21.30;;;11.88;;
71558;SDS011;59382;43.852;25.952;2022-12-24T03:49:58;17.25;;;11.60;;
71558;SDS011;59382;43.852;25.952;2022-12-24T03:52:24;18.92;;;11.45;;
71558;SDS011;59382;43.852;25.952;2022-12-24T03:54:49;19.77;;;11.93;;
71558;SDS011;59382;43.852;25.952;2022-12-24T03:57:15;22.90;;;11.50;;
71558;SDS011;59382;43.852;25.952;2022-12-24T03:59:41;22.52;;;12.32;;
71558;SDS011;59382;43.852;25.952;2022-12-24T04:02:06;23.08;;;13.15;;
71558;SDS011;59382;43.852;25.952;2022-12-24T04:04:32;24.90;;;13.35;;
71558;SDS011;59382;43.852;25.952;2022-12-24T04:07:02;25.75;;;12.35;;
71558;SDS011;59382;43.852;25.952;2022-12-24T04:09:28;23.85;;;13.27;;
71558;SDS011;59382;43.852;25.952;2022-12-24T04:11:54;26.17;;;13.65;;
71558;SDS011;59382;43.852;25.952;2022-12-24T04:14:19;30.15;;;17.75;;
71558;SDS011;59382;43.852;25.952;2022-12-24T04:16:48;24.38;;;13.95;;
71558;SDS011;59382;43.852;25.952;2022-12-24T04:19:13;26.70;;;14.52;;
71558;SDS011;59382;43.852;25.952;2022-12-24T04:21:39;23.80;;;13.40;;
71558;SDS011;59382;43.852;25.952;2022-12-24T04:24:04;25.17;;;13.07;;
71558;SDS011;59382;43.852;25.952;2022-12-24T04:26:30;24.73;;;14.57;;
71558;SDS011;59382;43.852;25.952;2022-12-24T04:28:56;25.08;;;14.52;;
71558;SDS011;59382;43.852;25.952;2022-12-24T04:31:21;28.60;;;15.93;;
71558;SDS011;59382;43.852;25.952;2022-12-24T04:33:47;23.60;;;14.75;;
71558;SDS011;59382;43.852;25.952;2022-12-24T04:36:17;25.40;;;15.07;;
71558;SDS011;59382;43.852;25.952;2022-12-24T04:38:43;23.45;;;13.50;;
71558;SDS011;59382;43.852;25.952;2022-12-24T04:41:11;32.38;;;15.68;;
71558;SDS011;59382;43.852;25.952;2022-12-24T04:43:38;24.77;;;13.30;;
71558;SDS011;59382;43.852;25.952;2022-12-24T04:46:05;23.77;;;13.30;;
71558;SDS011;59382;43.852;25.952;2022-12-24T04:48:32;24.25;;;13.30;;
71558;SDS011;59382;43.852;25.952;2022-12-24T04:51:04;31.92;;;13.20;;
71558;SDS011;59382;43.852;25.952;2022-12-24T04:53:30;21.70;;;12.93;;
71558;SDS011;59382;43.852;25.952;2022-12-24T04:55:59;24.30;;;14.07;;
71558;SDS011;59382;43.852;25.952;2022-12-24T04:58:26;28.38;;;13.45;;
71558;SDS011;59382;43.852;25.952;2022-12-24T05:00:56;26.98;;;13.45;;
71558;SDS011;59382;43.852;25.952;2022-12-24T05:03:26;28.27;;;14.63;;
71558;SDS011;59382;43.852;25.952;2022-12-24T05:05:59;27.10;;;14.52;;
71558;SDS011;59382;43.852;25.952;2022-12-24T05:08:26;23.20;;;13.30;;
71558;SDS011;59382;43.852;25.952;2022-12-24T05:10:55;26.95;;;14.25;;
71558;SDS011;59382;43.852;25.952;2022-12-24T05:13:21;27.58;;;13.85;;
71558;SDS011;59382;43.852;25.952;2022-12-24T05:15:47;23.33;;;14.40;;
71558;SDS011;59382;43.852;25.952;2022-12-24T05:18:16;31.30;;;14.48;;
71558;SDS011;59382;43.852;25.952;2022-12-24T05:20:42;23.98;;;12.88;;
71558;SDS011;59382;43.852;25.952;2022-12-24T05:23:08;27.48;;;15.43;;
71558;SDS011;59382;43.852;25.952;2022-12-24T05:26:02;24.70;;;12.75;;
71558;SDS011;59382;43.852;25.952;2022-12-24T05:28:55;27.45;;;14.48;;
71558;SDS011;59382;43.852;25.952;2022-12-24T05:31:22;25.85;;;13.70;;
71558;SDS011;59382;43.852;25.952;2022-12-24T05:33:49;25.55;;;13.57;;
71558;SDS011;59382;43.852;25.952;2022-12-24T05:36:15;24.98;;;13.82;;
71558;SDS011;59382;43.852;25.952;2022-12-24T05:38:44;29.40;;;14.13;;
71558;SDS011;59382;43.852;25.952;2022-12-24T05:41:09;26.98;;;14.30;;
71558;SDS011;59382;43.852;25.952;2022-12-24T05:43:36;26.25;;;14.05;;
71558;SDS011;59382;43.852;25.952;2022-12-24T05:46:03;23.75;;;13.40;;
71558;SDS011;59382;43.852;25.952;2022-12-24T05:48:34;24.73;;;13.05;;
71558;SDS011;59382;43.852;25.952;2022-12-24T05:51:03;25.10;;;12.73;;
71558;SDS011;59382;43.852;25.952;2022-12-24T05:53:30;24.92;;;12.57;;
71558;SDS011;59382;43.852;25.952;2022-12-24T05:56:01;20.67;;;12.23;;
71558;SDS011;59382;43.852;25.952;2022-12-24T05:58:41;23.40;;;12.48;;
71558;SDS011;59382;43.852;25.952;2022-12-24T06:01:10;23.20;;;11.13;;
71558;SDS011;59382;43.852;25.952;2022-12-24T06:03:36;26.63;;;13.02;;
71558;SDS011;59382;43.852;25.952;2022-12-24T06:08:32;23.48;;;12.68;;
71558;SDS011;59382;43.852;25.952;2022-12-24T06:11:00;22.77;;;12.88;;
71558;SDS011;59382;43.852;25.952;2022-12-24T06:13:28;22.70;;;12.50;;
71558;SDS011;59382;43.852;25.952;2022-12-24T06:15:57;27.25;;;12.80;;
71558;SDS011;59382;43.852;25.952;2022-12-24T06:18:23;24.85;;;12.95;;
71558;SDS011;59382;43.852;25.952;2022-12-24T06:20:50;19.90;;;11.65;;
71558;SDS011;59382;43.852;25.952;2022-12-24T06:23:17;20.30;;;11.15;;
71558;SDS011;59382;43.852;25.952;2022-12-24T06:25:42;18.60;;;11.20;;
71558;SDS011;59382;43.852;25.952;2022-12-24T06:28:10;21.25;;;11.45;;
71558;SDS011;59382;43.852;25.952;2022-12-24T06:30:36;19.20;;;11.15;;
71558;SDS011;59382;43.852;25.952;2022-12-24T06:33:01;16.85;;;10.05;;
71558;SDS011;59382;43.852;25.952;2022-12-24T06:35:27;19.95;;;10.73;;
71558;SDS011;59382;43.852;25.952;2022-12-24T06:37:54;21.27;;;11.93;;
71558;SDS011;59382;43.852;25.952;2022-12-24T06:40:24;21.63;;;11.05;;
71558;SDS011;59382;43.852;25.952;2022-12-24T06:42:50;22.08;;;12.43;;
71558;SDS011;59382;43.852;25.952;2022-12-24T06:45:16;20.70;;;12.50;;
71558;SDS011;59382;43.852;25.952;2022-12-24T06:47:41;24.33;;;12.90;;
71558;SDS011;59382;43.852;25.952;2022-12-24T06:50:07;21.30;;;12.52;;
71558;SDS011;59382;43.852;25.952;2022-12-24T06:52:33;27.48;;;12.88;;
71558;SDS011;59382;43.852;25.952;2022-12-24T06:54:59;20.98;;;12.40;;
71558;SDS011;59382;43.852;25.952;2022-12-24T06:57:25;21.50;;;12.73;;
71558;SDS011;59382;43.852;25.952;2022-12-24T06:59:51;21.90;;;11.60;;
71558;SDS011;59382;43.852;25.952;2022-12-24T07:02:17;20.42;;;12.70;;
71558;SDS011;59382;43.852;25.952;2022-12-24T07:04:43;20.45;;;13.35;;
71558;SDS011;59382;43.852;25.952;2022-12-24T07:07:08;19.42;;;12.70;;
71558;SDS011;59382;43.852;25.952;2022-12-24T07:09:34;24.27;;;12.98;;
71558;SDS011;59382;43.852;25.952;2022-12-24T07:11:59;28.33;;;14.13;;
71558;SDS011;59382;43.852;25.952;2022-12-24T07:14:25;25.08;;;13.32;;
71558;SDS011;59382;43.852;25.952;2022-12-24T07:16:50;24.77;;;14.30;;
71558;SDS011;59382;43.852;25.952;2022-12-24T07:19:17;25.45;;;14.45;;
71558;SDS011;59382;43.852;25.952;2022-12-24T07:21:43;23.95;;;12.40;;
71558;SDS011;59382;43.852;25.952;2022-12-24T07:24:08;21.80;;;12.70;;
71558;SDS011;59382;43.852;25.952;2022-12-24T07:26:34;20.65;;;12.63;;
71558;SDS011;59382;43.852;25.952;2022-12-24T07:28:59;25.10;;;13.32;;
71558;SDS011;59382;43.852;25.952;2022-12-24T07:31:25;22.00;;;12.35;;
71558;SDS011;59382;43.852;25.952;2022-12-24T07:33:50;21.48;;;11.73;;
71558;SDS011;59382;43.852;25.952;2022-12-24T07:36:17;22.92;;;12.15;;
71558;SDS011;59382;43.852;25.952;2022-12-24T07:38:45;22.95;;;12.05;;
71558;SDS011;59382;43.852;25.952;2022-12-24T07:41:11;18.40;;;11.63;;
71558;SDS011;59382;43.852;25.952;2022-12-24T07:43:37;19.25;;;10.70;;
71558;SDS011;59382;43.852;25.952;2022-12-24T07:46:03;25.17;;;14.43;;
71558;SDS011;59382;43.852;25.952;2022-12-24T07:48:30;28.35;;;15.93;;
71558;SDS011;59382;43.852;25.952;2022-12-24T07:50:59;37.35;;;17.08;;
71558;SDS011;59382;43.852;25.952;2022-12-24T07:53:25;30.63;;;17.10;;
71558;SDS011;59382;43.852;25.952;2022-12-24T07:55:52;34.65;;;17.63;;
71558;SDS011;59382;43.852;25.952;2022-12-24T07:58:17;34.55;;;16.98;;
71558;SDS011;59382;43.852;25.952;2022-12-24T08:00:43;37.00;;;17.92;;
71558;SDS011;59382;43.852;25.952;2022-12-24T08:03:13;35.88;;;17.02;;
71558;SDS011;59382;43.852;25.952;2022-12-24T08:05:46;46.97;;;16.65;;
71558;SDS011;59382;43.852;25.952;2022-12-24T08:08:16;31.20;;;15.00;;
71558;SDS011;59382;43.852;25.952;2022-12-24T08:10:45;26.88;;;15.52;;
71558;SDS011;59382;43.852;25.952;2022-12-24T08:13:11;33.17;;;15.88;;
71558;SDS011;59382;43.852;25.952;2022-12-24T08:15:37;26.10;;;15.07;;
71558;SDS011;59382;43.852;25.952;2022-12-24T08:18:02;29.92;;;15.85;;
71558;SDS011;59382;43.852;25.952;2022-12-24T08:20:30;27.85;;;14.20;;
71558;SDS011;59382;43.852;25.952;2022-12-24T08:22:56;33.45;;;17.92;;
71558;SDS011;59382;43.852;25.952;2022-12-24T08:25:27;33.40;;;17.58;;
71558;SDS011;59382;43.852;25.952;2022-12-24T08:27:52;27.73;;;16.52;;
71558;SDS011;59382;43.852;25.952;2022-12-24T08:30:18;25.55;;;15.13;;
71558;SDS011;59382;43.852;25.952;2022-12-24T08:32:43;31.05;;;15.30;;
71558;SDS011;59382;43.852;25.952;2022-12-24T08:35:11;27.13;;;14.27;;
71558;SDS011;59382;43.852;25.952;2022-12-24T08:37:37;24.80;;;14.25;;
71558;SDS011;59382;43.852;25.952;2022-12-24T08:40:02;27.35;;;15.35;;
71558;SDS011;59382;43.852;25.952;2022-12-24T08:42:28;27.50;;;15.13;;
71558;SDS011;59382;43.852;25.952;2022-12-24T08:44:54;31.85;;;15.50;;
71558;SDS011;59382;43.852;25.952;2022-12-24T08:47:19;38.03;;;17.67;;
71558;SDS011;59382;43.852;25.952;2022-12-24T08:49:46;31.13;;;15.75;;
71558;SDS011;59382;43.852;25.952;2022-12-24T08:52:11;32.78;;;16.73;;
71558;SDS011;59382;43.852;25.952;2022-12-24T08:54:37;27.80;;;14.95;;
71558;SDS011;59382;43.852;25.952;2022-12-24T08:57:02;32.25;;;15.85;;
71558;SDS011;59382;43.852;25.952;2022-12-24T08:59:28;30.17;;;16.20;;
71558;SDS011;59382;43.852;25.952;2022-12-24T09:01:53;29.48;;;14.88;;
71558;SDS011;59382;43.852;25.952;2022-12-24T09:04:19;25.27;;;14.27;;
71558;SDS011;59382;43.852;25.952;2022-12-24T09:06:47;26.33;;;15.05;;
71558;SDS011;59382;43.852;25.952;2022-12-24T09:09:13;26.17;;;13.73;;
71558;SDS011;59382;43.852;25.952;2022-12-24T09:11:38;24.30;;;14.02;;
71558;SDS011;59382;43.852;25.952;2022-12-24T09:14:04;21.92;;;12.98;;
71558;SDS011;59382;43.852;25.952;2022-12-24T09:16:29;20.40;;;12.38;;
71558;SDS011;59382;43.852;25.952;2022-12-24T09:18:55;20.60;;;12.18;;
71558;SDS011;59382;43.852;25.952;2022-12-24T09:21:22;29.45;;;15.13;;
71558;SDS011;59382;43.852;25.952;2022-12-24T09:23:48;29.20;;;15.75;;
71558;SDS011;59382;43.852;25.952;2022-12-24T09:26:15;28.33;;;15.80;;
71558;SDS011;59382;43.852;25.952;2022-12-24T09:28:45;23.77;;;14.32;;
71558;SDS011;59382;43.852;25.952;2022-12-24T09:31:12;25.13;;;13.57;;
71558;SDS011;59382;43.852;25.952;2022-12-24T09:33:38;24.38;;;13.80;;
71558;SDS011;59382;43.852;25.952;2022-12-24T09:36:05;20.38;;;12.52;;
71558;SDS011;59382;43.852;25.952;2022-12-24T09:38:31;20.38;;;12.93;;
71558;SDS011;59382;43.852;25.952;2022-12-24T09:40:58;19.20;;;12.25;;
71558;SDS011;59382;43.852;25.952;2022-12-24T09:43:30;22.85;;;12.60;;
71558;SDS011;59382;43.852;25.952;2022-12-24T09:48:31;23.60;;;12.98;;
71558;SDS011;59382;43.852;25.952;2022-12-24T09:57:07;18.00;;;11.68;;
71558;SDS011;59382;43.852;25.952;2022-12-24T09:59:41;20.67;;;12.52;;
71558;SDS011;59382;43.852;25.952;2022-12-24T10:02:12;21.73;;;12.57;;
71558;SDS011;59382;43.852;25.952;2022-12-24T10:04:40;20.15;;;11.73;;
71558;SDS011;59382;43.852;25.952;2022-12-24T10:07:22;21.25;;;12.85;;
71558;SDS011;59382;43.852;25.952;2022-12-24T10:20:59;17.17;;;11.23;;
71558;SDS011;59382;43.852;25.952;2022-12-24T10:31:31;21.60;;;11.38;;
71558;SDS011;59382;43.852;25.952;2022-12-24T10:34:11;18.92;;;10.88;;
71558;SDS011;59382;43.852;25.952;2022-12-24T10:36:41;21.35;;;11.10;;
71558;SDS011;59382;43.852;25.952;2022-12-24T10:39:12;21.05;;;10.85;;
71558;SDS011;59382;43.852;25.952;2022-12-24T10:41:43;20.25;;;11.20;;
71558;SDS011;59382;43.852;25.952;2022-12-24T10:44:14;18.20;;;11.98;;
71558;SDS011;59382;43.852;25.952;2022-12-24T10:46:48;17.63;;;10.93;;
71558;SDS011;59382;43.852;25.952;2022-12-24T10:49:16;18.63;;;11.00;;
71558;SDS011;59382;43.852;25.952;2022-12-24T10:51:56;19.27;;;11.98;;
71558;SDS011;59382;43.852;25.952;2022-12-24T10:54:34;21.30;;;10.80;;
71558;SDS011;59382;43.852;25.952;2022-12-24T10:57:04;18.00;;;10.93;;
71558;SDS011;59382;43.852;25.952;2022-12-24T10:59:51;22.77;;;11.88;;
71558;SDS011;59382;43.852;25.952;2022-12-24T11:02:29;15.40;;;10.57;;
71558;SDS011;59382;43.852;25.952;2022-12-24T11:04:57;22.10;;;11.45;;
71558;SDS011;59382;43.852;25.952;2022-12-24T11:07:24;17.80;;;11.25;;
71558;SDS011;59382;43.852;25.952;2022-12-24T11:12:24;19.27;;;10.98;;
71558;SDS011;59382;43.852;25.952;2022-12-24T11:14:59;18.92;;;10.40;;
71558;SDS011;59382;43.852;25.952;2022-12-24T11:17:27;17.15;;;10.88;;
71558;SDS011;59382;43.852;25.952;2022-12-24T11:19:53;19.10;;;10.88;;
71558;SDS011;59382;43.852;25.952;2022-12-24T11:22:23;20.25;;;10.00;;
71558;SDS011;59382;43.852;25.952;2022-12-24T11:32:44;20.98;;;12.43;;
71558;SDS011;59382;43.852;25.952;2022-12-24T11:37:42;17.67;;;11.63;;
71558;SDS011;59382;43.852;25.952;2022-12-24T11:40:20;20.30;;;11.27;;
71558;SDS011;59382;43.852;25.952;2022-12-24T11:42:52;20.70;;;11.27;;
71558;SDS011;59382;43.852;25.952;2022-12-24T11:45:28;16.20;;;10.43;;
71558;SDS011;59382;43.852;25.952;2022-12-24T11:47:59;16.23;;;10.57;;
71558;SDS011;59382;43.852;25.952;2022-12-24T11:50:34;19.05;;;9.10;;
71558;SDS011;59382;43.852;25.952;2022-12-24T12:04:17;19.83;;;10.73;;
71558;SDS011;59382;43.852;25.952;2022-12-24T12:07:25;18.38;;;10.90;;
71558;SDS011;59382;43.852;25.952;2022-12-24T12:09:51;19.20;;;10.30;;
71558;SDS011;59382;43.852;25.952;2022-12-24T12:12:47;17.20;;;10.93;;
71558;SDS011;59382;43.852;25.952;2022-12-24T12:15:23;17.38;;;11.57;;
71558;SDS011;59382;43.852;25.952;2022-12-24T12:17:56;21.13;;;12.15;;
71558;SDS011;59382;43.852;25.952;2022-12-24T12:20:31;18.05;;;10.50;;
71558;SDS011;59382;43.852;25.952;2022-12-24T12:23:48;20.05;;;11.68;;
71558;SDS011;59382;43.852;25.952;2022-12-24T12:25:56;19.05;;;10.32;;
71558;SDS011;59382;43.852;25.952;2022-12-24T12:28:58;17.55;;;10.20;;
71558;SDS011;59382;43.852;25.952;2022-12-24T12:31:38;18.40;;;11.32;;
71558;SDS011;59382;43.852;25.952;2022-12-24T12:34:42;29.38;;;15.55;;
71558;SDS011;59382;43.852;25.952;2022-12-24T12:37:35;17.60;;;10.75;;
71558;SDS011;59382;43.852;25.952;2022-12-24T12:40:15;15.57;;;9.50;;
71558;SDS011;59382;43.852;25.952;2022-12-24T12:43:12;22.88;;;10.02;;
71558;SDS011;59382;43.852;25.952;2022-12-24T12:45:53;20.33;;;11.10;;
71558;SDS011;59382;43.852;25.952;2022-12-24T12:48:28;20.55;;;10.82;;
71558;SDS011;59382;43.852;25.952;2022-12-24T12:51:09;19.35;;;10.73;;
71558;SDS011;59382;43.852;25.952;2022-12-24T13:10:35;23.48;;;11.80;;
71558;SDS011;59382;43.852;25.952;2022-12-24T13:13:32;19.95;;;11.43;;
71558;SDS011;59382;43.852;25.952;2022-12-24T13:21:30;25.23;;;12.60;;
71558;SDS011;59382;43.852;25.952;2022-12-24T13:34:50;17.60;;;10.45;;
71558;SDS011;59382;43.852;25.952;2022-12-24T13:37:21;17.25;;;10.18;;
71558;SDS011;59382;43.852;25.952;2022-12-24T13:43:05;16.55;;;9.65;;
71558;SDS011;59382;43.852;25.952;2022-12-24T13:50:56;16.00;;;8.95;;
71558;SDS011;59382;43.852;25.952;2022-12-24T13:56:31;16.38;;;9.45;;
71558;SDS011;59382;43.852;25.952;2022-12-24T14:01:53;21.52;;;10.23;;
71558;SDS011;59382;43.852;25.952;2022-12-24T14:04:29;24.30;;;11.13;;
71558;SDS011;59382;43.852;25.952;2022-12-24T14:07:03;19.30;;;10.02;;
71558;SDS011;59382;43.852;25.952;2022-12-24T14:09:38;13.63;;;9.02;;
71558;SDS011;59382;43.852;25.952;2022-12-24T14:15:43;14.60;;;8.68;;
71558;SDS011;59382;43.852;25.952;2022-12-24T14:18:24;15.15;;;7.90;;
71558;SDS011;59382;43.852;25.952;2022-12-24T14:21:27;14.02;;;8.25;;
71558;SDS011;59382;43.852;25.952;2022-12-24T14:24:24;19.35;;;9.27;;
71558;SDS011;59382;43.852;25.952;2022-12-24T14:26:59;18.42;;;10.93;;
71558;SDS011;59382;43.852;25.952;2022-12-24T14:29:47;15.60;;;7.75;;
71558;SDS011;59382;43.852;25.952;2022-12-24T14:35:36;16.67;;;8.43;;
71558;SDS011;59382;43.852;25.952;2022-12-24T14:38:07;14.73;;;7.82;;
71558;SDS011;59382;43.852;25.952;2022-12-24T14:55:22;19.33;;;9.73;;
71558;SDS011;59382;43.852;25.952;2022-12-24T15:06:36;14.52;;;7.25;;
71558;SDS011;59382;43.852;25.952;2022-12-24T15:09:22;14.38;;;5.85;;
71558;SDS011;59382;43.852;25.952;2022-12-24T15:11:51;12.38;;;6.50;;
71558;SDS011;59382;43.852;25.952;2022-12-24T15:14:40;7.23;;;4.97;;
71558;SDS011;59382;43.852;25.952;2022-12-24T15:17:08;5.55;;;4.22;;
71558;SDS011;59382;43.852;25.952;2022-12-24T15:19:38;5.88;;;3.80;;
71558;SDS011;59382;43.852;25.952;2022-12-24T15:22:09;5.90;;;3.90;;
71558;SDS011;59382;43.852;25.952;2022-12-24T15:27:14;11.40;;;4.07;;
71558;SDS011;59382;43.852;25.952;2022-12-24T15:29:42;8.52;;;4.05;;
71558;SDS011;59382;43.852;25.952;2022-12-24T15:32:13;8.13;;;4.18;;
71558;SDS011;59382;43.852;25.952;2022-12-24T15:34:43;6.57;;;4.43;;
71558;SDS011;59382;43.852;25.952;2022-12-24T15:37:21;4.35;;;3.53;;
71558;SDS011;59382;43.852;25.952;2022-12-24T15:40:08;8.38;;;4.40;;
71558;SDS011;59382;43.852;25.952;2022-12-24T15:42:46;4.78;;;3.90;;
71558;SDS011;59382;43.852;25.952;2022-12-24T15:45:16;6.90;;;4.35;;
71558;SDS011;59382;43.852;25.952;2022-12-24T15:47:49;5.78;;;4.03;;
71558;SDS011;59382;43.852;25.952;2022-12-24T15:53:06;8.13;;;5.25;;
71558;SDS011;59382;43.852;25.952;2022-12-24T15:58:26;6.55;;;4.47;;
71558;SDS011;59382;43.852;25.952;2022-12-24T16:03:37;7.60;;;5.25;;
71558;SDS011;59382;43.852;25.952;2022-12-24T16:06:15;7.43;;;5.05;;
71558;SDS011;59382;43.852;25.952;2022-12-24T16:08:47;9.45;;;4.85;;
71558;SDS011;59382;43.852;25.952;2022-12-24T16:14:06;12.60;;;6.57;;
71558;SDS011;59382;43.852;25.952;2022-12-24T16:16:41;10.57;;;6.63;;
71558;SDS011;59382;43.852;25.952;2022-12-24T16:19:20;7.57;;;5.50;;
71558;SDS011;59382;43.852;25.952;2022-12-24T16:21:52;10.38;;;5.45;;
71558;SDS011;59382;43.852;25.952;2022-12-24T16:24:23;8.98;;;6.20;;
71558;SDS011;59382;43.852;25.952;2022-12-24T16:26:53;10.02;;;7.45;;
71558;SDS011;59382;43.852;25.952;2022-12-24T16:29:20;14.13;;;6.30;;
71558;SDS011;59382;43.852;25.952;2022-12-24T16:31:49;19.67;;;8.02;;
71558;SDS011;59382;43.852;25.952;2022-12-24T16:34:17;12.10;;;6.50;;
71558;SDS011;59382;43.852;25.952;2022-12-24T16:36:45;12.90;;;8.18;;
71558;SDS011;59382;43.852;25.952;2022-12-24T16:39:23;11.98;;;7.50;;
71558;SDS011;59382;43.852;25.952;2022-12-24T16:42:02;14.55;;;8.20;;
71558;SDS011;59382;43.852;25.952;2022-12-24T16:44:47;16.23;;;9.40;;
71558;SDS011;59382;43.852;25.952;2022-12-24T16:47:19;13.63;;;8.60;;
71558;SDS011;59382;43.852;25.952;2022-12-24T16:49:48;12.68;;;8.55;;
71558;SDS011;59382;43.852;25.952;2022-12-24T16:52:19;11.93;;;6.20;;
71558;SDS011;59382;43.852;25.952;2022-12-24T16:54:47;12.00;;;7.15;;
71558;SDS011;59382;43.852;25.952;2022-12-24T16:57:15;11.00;;;6.72;;
71558;SDS011;59382;43.852;25.952;2022-12-24T16:59:41;7.95;;;5.68;;
71558;SDS011;59382;43.852;25.952;2022-12-24T17:02:09;10.60;;;5.85;;
71558;SDS011;59382;43.852;25.952;2022-12-24T17:04:37;7.07;;;5.25;;
71558;SDS011;59382;43.852;25.952;2022-12-24T17:07:10;12.40;;;5.60;;
71558;SDS011;59382;43.852;25.952;2022-12-24T17:09:49;10.07;;;4.75;;
71558;SDS011;59382;43.852;25.952;2022-12-24T17:12:49;7.68;;;4.32;;
71558;SDS011;59382;43.852;25.952;2022-12-24T17:15:22;10.43;;;4.82;;
71558;SDS011;59382;43.852;25.952;2022-12-24T17:17:48;12.23;;;6.35;;
71558;SDS011;59382;43.852;25.952;2022-12-24T17:20:14;5.65;;;4.22;;